Time;durP1;ratioP1;P1;durP2;ratioP2;P2;SDS_P1;SDS_P2;PMS_P1;PMS_P2;Temp;Humidity;BMP_temperature;BMP_pressure;BME280_temperature;BME280_humidity;BME280_pressure;Samples;Min_cycle;Max_cycle;Signal;HPM_P1;HPM_P2
2021/01/21 00:01:13;;;;;;;3.60;1.60;;;;;;;6.91;90.38;98709.84;5074776;28;20233;-71
2021/01/21 00:03:39;;;;;;;2.37;1.50;;;;;;;6.89;90.21;98706.66;5058806;28;20174;-71
2021/01/21 00:06:05;;;;;;;4.10;1.37;;;;;;;6.93;90.85;98708.44;5057569;28;20218;-71
2021/01/21 00:08:30;;;;;;;2.70;1.40;;;;;;;6.99;91.03;98711.88;5075134;28;20749;-71
2021/01/21 00:10:56;;;;;;;2.37;1.40;;;;;;;6.87;91.11;98698.06;5074543;28;20237;-71
2021/01/21 00:13:21;;;;;;;2.63;1.40;;;;;;;6.88;91.36;98703.13;5092130;28;20205;-70
2021/01/21 00:15:47;;;;;;;2.40;1.40;;;;;;;6.91;90.90;98701.75;5073875;28;20427;-71
2021/01/21 00:18:13;;;;;;;1.37;1.27;;;;;;;6.97;90.46;98703.28;5075387;28;20581;-71
2021/01/21 00:20:41;;;;;;;4.90;1.50;;;;;;;7.00;90.58;98702.69;5091449;28;20222;-71
2021/01/21 00:23:06;;;;;;;2.50;1.57;;;;;;;6.99;91.00;98701.06;5058282;28;20182;-71
2021/01/21 00:25:34;;;;;;;2.53;1.33;;;;;;;7.18;89.71;98694.53;5073913;28;20275;-71
2021/01/21 00:28:01;;;;;;;2.63;1.53;;;;;;;7.36;87.56;98691.75;5074973;28;20202;-71
2021/01/21 00:30:29;;;;;;;3.07;1.40;;;;;;;7.22;88.79;98690.13;5074346;28;20683;-71
2021/01/21 00:32:57;;;;;;;3.30;1.60;;;;;;;7.26;88.32;98683.03;5075160;28;20289;-70
2021/01/21 00:35:25;;;;;;;3.83;1.50;;;;;;;7.35;87.66;98678.53;5072466;28;20174;-71
2021/01/21 00:37:50;;;;;;;2.53;1.47;;;;;;;7.35;87.56;98673.94;5074636;28;20217;-71
2021/01/21 00:40:16;;;;;;;2.70;1.20;;;;;;;7.70;85.14;98673.22;5057851;28;20640;-70
2021/01/21 00:42:42;;;;;;;3.00;1.30;;;;;;;7.58;85.84;98667.53;5091378;28;20170;-70
2021/01/21 00:45:08;;;;;;;2.40;1.40;;;;;;;7.76;84.93;98663.91;5073377;28;20198;-71
2021/01/21 00:47:36;;;;;;;3.60;1.50;;;;;;;7.88;84.32;98651.47;5092822;28;20210;-71
2021/01/21 00:50:02;;;;;;;1.53;1.20;;;;;;;7.91;83.44;98644.66;5074238;28;20170;-71
2021/01/21 00:52:28;;;;;;;3.80;1.20;;;;;;;7.89;84.14;98641.44;5057609;28;20321;-71
2021/01/21 00:54:56;;;;;;;3.43;1.30;;;;;;;7.90;83.32;98640.38;5057393;28;20193;-71
2021/01/21 00:57:22;;;;;;;2.40;1.40;;;;;;;8.02;82.94;98625.19;5073678;28;20704;-70
2021/01/21 00:59:47;;;;;;;2.53;1.73;;;;;;;8.15;81.71;98625.19;5057731;28;20202;-70
2021/01/21 01:02:13;;;;;;;4.20;1.37;;;;;;;8.22;81.47;98613.94;5057202;28;20214;-71
2021/01/21 01:04:42;;;;;;;3.43;1.37;;;;;;;8.27;81.40;98616.53;5073401;28;20174;-70
2021/01/21 01:07:09;;;;;;;3.60;1.30;;;;;;;8.41;79.97;98612.66;5057718;28;20217;-70
2021/01/21 01:09:40;;;;;;;2.60;1.23;;;;;;;8.44;79.99;98603.91;5091182;28;20179;-71
2021/01/21 01:12:09;;;;;;;2.00;1.10;;;;;;;8.48;79.93;98588.69;5073205;28;20214;-71
2021/01/21 01:14:36;;;;;;;3.13;1.27;;;;;;;8.52;79.72;98597.78;5090835;28;20546;-71
2021/01/21 01:17:05;;;;;;;2.67;1.17;;;;;;;8.72;78.06;98608.06;5073499;28;20222;-70
2021/01/21 01:19:38;;;;;;;1.67;1.30;;;;;;;8.73;77.94;98601.56;5075504;28;20686;-72
2021/01/21 01:22:05;;;;;;;3.37;1.30;;;;;;;8.62;78.47;98597.53;5056898;28;20279;-71
2021/01/21 01:24:31;;;;;;;2.83;1.20;;;;;;;8.81;77.62;98584.56;5056749;28;20174;-70
2021/01/21 01:26:59;;;;;;;3.23;1.27;;;;;;;8.85;77.40;98581.72;5089586;28;20599;-72
2021/01/21 01:29:32;;;;;;;2.47;1.37;;;;;;;8.70;78.39;98577.81;5074722;28;20170;-71
2021/01/21 01:32:00;;;;;;;3.27;1.30;;;;;;;8.78;78.27;98586.00;5090041;28;20225;-71
2021/01/21 01:34:37;;;;;;;2.97;1.20;;;;;;;8.82;77.87;98591.59;5075206;28;20173;-71
2021/01/21 01:37:08;;;;;;;2.70;1.30;;;;;;;8.79;77.70;98582.19;5073375;28;20738;-70
2021/01/21 01:39:40;;;;;;;2.17;1.10;;;;;;;8.68;78.59;98586.28;5066681;28;20187;-71
2021/01/21 01:42:16;;;;;;;1.40;1.00;;;;;;;8.99;76.59;98587.84;5069258;28;20699;-71
2021/01/21 01:44:46;;;;;;;1.60;1.20;;;;;;;9.09;75.70;98567.81;5070278;28;20183;-71
2021/01/21 01:47:12;;;;;;;2.77;1.30;;;;;;;8.96;76.35;98555.97;5053163;28;20231;-71
2021/01/21 01:49:38;;;;;;;2.80;1.10;;;;;;;8.94;76.90;98552.78;5053786;28;20185;-71
2021/01/21 01:52:05;;;;;;;2.07;1.10;;;;;;;9.12;76.07;98548.22;5069591;28;20231;-71
2021/01/21 01:54:30;;;;;;;3.33;1.50;;;;;;;9.01;76.59;98536.91;5053045;28;20236;-71
2021/01/21 01:57:10;;;;;;;2.23;1.20;;;;;;;9.14;75.63;98530.56;5056030;28;20674;-71
2021/01/21 01:59:36;;;;;;;2.23;1.00;;;;;;;9.23;74.70;98520.56;5070122;28;20194;-71
2021/01/21 02:02:02;;;;;;;1.97;1.20;;;;;;;9.30;74.16;98518.97;5069217;28;20222;-71
2021/01/21 02:04:31;;;;;;;2.07;1.10;;;;;;;9.18;75.29;98517.19;5053545;28;20192;-71
2021/01/21 02:07:09;;;;;;;2.73;1.30;;;;;;;9.39;73.71;98511.63;5070721;28;20603;-71
2021/01/21 02:09:48;;;;;;;2.10;1.23;;;;;;;9.31;74.59;98522.47;5055775;28;20239;-71
2021/01/21 02:12:22;;;;;;;1.83;1.20;;;;;;;9.40;73.88;98512.47;5069413;28;20242;-71
2021/01/21 02:15:09;;;;;;;1.90;1.23;;;;;;;9.37;74.01;98494.13;5069523;28;20222;-70
2021/01/21 02:18:04;;;;;;;2.17;1.17;;;;;;;9.40;74.14;98498.91;5072305;28;20746;-71
2021/01/21 02:20:50;;;;;;;2.27;1.20;;;;;;;9.39;73.88;98484.56;5053965;28;20718;-71
2021/01/21 02:23:25;;;;;;;2.57;1.10;;;;;;;9.57;72.50;98482.66;5071798;28;20182;-71
2021/01/21 02:25:59;;;;;;;1.67;1.10;;;;;;;9.46;73.22;98474.03;5052502;28;20218;-71
2021/01/21 02:28:34;;;;;;;3.67;1.20;;;;;;;9.51;73.00;98475.81;5054994;28;20263;-71
2021/01/21 02:31:04;;;;;;;1.73;1.20;;;;;;;9.50;73.34;98468.78;5053266;28;20218;-71
2021/01/21 02:37:28;;;;;;;2.10;0.97;;;;;;;9.58;72.29;98452.53;5070416;28;20226;-70
2021/01/21 02:40:03;;;;;;;2.37;1.27;;;;;;;9.57;72.68;98435.47;5074106;28;20685;-69
2021/01/21 02:42:50;;;;;;;4.80;1.17;;;;;;;9.59;72.51;98419.69;5054632;28;20214;-72
2021/01/21 02:45:19;;;;;;;1.27;0.90;;;;;;;9.76;71.54;98416.97;5037355;28;20194;-71
2021/01/21 02:47:51;;;;;;;4.10;1.20;;;;;;;9.74;71.87;98405.66;5021937;28;20195;-71
2021/01/21 02:50:20;;;;;;;2.43;0.90;;;;;;;9.79;70.80;98407.41;5020309;28;20680;-71
2021/01/21 02:52:59;;;;;;;3.67;1.20;;;;;;;9.87;70.51;98410.09;5036769;28;20207;-71
2021/01/21 02:55:32;;;;;;;3.47;1.20;;;;;;;9.75;71.39;98401.03;5037274;28;20268;-72
2021/01/21 02:58:06;;;;;;;3.57;1.30;;;;;;;9.65;72.42;98393.22;5038243;28;20211;-69
2021/01/21 03:00:33;;;;;;;3.57;1.30;;;;;;;9.71;71.35;98403.59;5036031;28;20219;-71
2021/01/21 03:02:59;;;;;;;2.33;1.10;;;;;;;9.99;69.42;98396.69;5036745;28;20190;-72
2021/01/21 03:05:28;;;;;;;2.83;1.07;;;;;;;9.86;70.13;98389.53;5020074;28;20211;-71
2021/01/21 03:07:54;;;;;;;2.53;1.10;;;;;;;9.77;71.26;98368.97;5036342;28;20290;-71
2021/01/21 03:10:21;;;;;;;2.60;1.20;;;;;;;9.77;71.18;98375.19;5035805;28;20238;-71
2021/01/21 03:12:54;;;;;;;1.93;1.00;;;;;;;9.55;72.87;98361.03;5036448;28;20288;-71
2021/01/21 03:15:20;;;;;;;3.23;1.27;;;;;;;9.70;71.44;98345.06;5038135;28;20188;-71
2021/01/21 03:17:55;;;;;;;1.70;1.10;;;;;;;9.69;71.16;98338.06;5060899;28;20274;-72
2021/01/21 03:20:26;;;;;;;1.63;1.00;;;;;;;9.69;70.61;98343.50;5044719;28;20634;-72
2021/01/21 03:22:52;;;;;;;1.77;1.00;;;;;;;9.65;71.16;98339.03;5093061;28;20174;-72
2021/01/21 03:25:21;;;;;;;2.70;1.10;;;;;;;9.46;71.91;98332.38;5075188;28;20700;-72
2021/01/21 03:27:55;;;;;;;1.70;1.10;;;;;;;9.51;71.50;98333.00;5092883;28;20274;-70
2021/01/21 03:30:26;;;;;;;5.37;1.30;;;;;;;9.56;71.42;98326.59;5076239;28;20222;-69
2021/01/21 03:32:52;;;;;;;1.83;1.10;;;;;;;9.39;72.14;98332.06;5092862;28;20213;-69
2021/01/21 03:35:19;;;;;;;1.53;0.90;;;;;;;9.31;72.93;98312.00;5074964;28;20320;-70
2021/01/21 03:37:51;;;;;;;1.87;0.90;;;;;;;9.16;73.46;98311.72;5092994;28;20667;-70
2021/01/21 03:40:20;;;;;;;2.73;1.20;;;;;;;9.27;72.85;98311.06;5057776;28;20228;-69
2021/01/21 03:42:49;;;;;;;2.83;1.00;;;;;;;9.30;72.63;98304.19;5083864;28;20206;-70
2021/01/21 03:45:38;;;;;;;1.97;1.03;;;;;;;9.22;72.77;98302.31;5070323;28;20598;-71
2021/01/21 03:48:12;;;;;;;3.30;1.17;;;;;;;9.17;73.50;98302.47;5042567;28;20207;-70
2021/01/21 03:50:57;;;;;;;1.33;0.93;;;;;;;9.11;73.26;98308.38;5044911;28;20214;-72
2021/01/21 03:53:23;;;;;;;2.30;1.10;;;;;;;9.09;73.52;98305.97;5040167;28;20692;-70
2021/01/21 03:56:09;;;;;;;2.33;1.23;;;;;;;9.06;72.95;98301.19;5054992;28;20309;-70
2021/01/21 03:58:37;;;;;;;1.87;1.10;;;;;;;8.92;74.16;98289.75;5039424;28;20225;-70
2021/01/21 04:01:11;;;;;;;1.63;1.00;;;;;;;9.00;73.71;98302.47;5050483;28;20219;-70
2021/01/21 04:03:36;;;;;;;2.67;1.00;;;;;;;9.04;73.63;98292.59;5088835;28;20686;-70
2021/01/21 04:06:07;;;;;;;2.93;1.10;;;;;;;9.00;73.65;98283.53;5074653;28;20947;-69
2021/01/21 04:08:37;;;;;;;2.80;1.10;;;;;;;8.86;74.25;98291.03;5076251;28;20273;-70
2021/01/21 04:11:24;;;;;;;1.40;0.93;;;;;;;8.98;74.04;98285.75;5052899;28;20223;-70
2021/01/21 04:13:57;;;;;;;2.77;0.93;;;;;;;8.93;73.70;98275.09;5037436;28;20188;-70
2021/01/21 04:16:24;;;;;;;1.63;1.00;;;;;;;8.74;75.27;98270.34;5049565;28;20777;-70
2021/01/21 04:18:53;;;;;;;1.63;0.80;;;;;;;8.60;75.80;98269.69;5061132;28;20188;-71
2021/01/21 04:21:21;;;;;;;2.53;1.03;;;;;;;8.57;76.02;98264.91;5076578;28;20624;-70
2021/01/21 04:23:54;;;;;;;2.43;1.00;;;;;;;8.51;76.61;98253.44;5060169;28;20303;-70
2021/01/21 04:26:30;;;;;;;2.00;1.00;;;;;;;8.52;76.97;98241.50;5046518;28;20295;-70
2021/01/21 04:28:58;;;;;;;2.80;1.00;;;;;;;8.59;77.37;98241.84;5058575;28;20191;-70
2021/01/21 04:31:28;;;;;;;2.67;1.17;;;;;;;8.47;77.38;98232.75;5067545;28;20222;-70
2021/01/21 04:34:03;;;;;;;1.70;1.00;;;;;;;8.54;77.05;98233.09;5071934;28;20186;-70
2021/01/21 04:36:30;;;;;;;2.73;1.00;;;;;;;8.44;77.20;98233.38;5047841;28;20222;-70
2021/01/21 04:38:56;;;;;;;1.80;1.00;;;;;;;8.32;78.25;98232.44;5089005;28;20201;-70
2021/01/21 04:41:26;;;;;;;1.67;0.90;;;;;;;8.26;78.61;98236.38;5074044;28;20768;-70
2021/01/21 04:44:27;;;;;;;2.03;1.00;;;;;;;8.38;77.57;98226.53;5075415;28;20589;-70
2021/01/21 04:47:01;;;;;;;2.33;1.00;;;;;;;8.19;79.50;98217.16;5057376;28;20213;-71
2021/01/21 04:49:36;;;;;;;2.00;1.10;;;;;;;8.17;79.88;98217.47;5040073;28;20266;-70
2021/01/21 04:52:03;;;;;;;1.60;1.00;;;;;;;8.16;79.73;98210.47;5038519;28;20719;-70
2021/01/21 04:54:39;;;;;;;2.20;1.00;;;;;;;8.10;79.81;98211.72;5039066;28;20228;-71
2021/01/21 04:57:22;;;;;;;2.63;1.67;;;;;;;8.12;79.56;98204.09;5071477;28;20226;-70
2021/01/21 05:00:00;;;;;;;1.00;0.90;;;;;;;7.96;80.22;98204.03;5060290;28;20182;-70
2021/01/21 05:02:45;;;;;;;2.33;1.00;;;;;;;7.78;81.81;98205.09;5054358;28;20213;-70
2021/01/21 05:05:36;;;;;;;3.23;1.10;;;;;;;7.90;81.06;98208.78;5032722;28;20624;-70
2021/01/21 05:08:06;;;;;;;2.53;1.03;;;;;;;7.99;80.76;98206.13;5053238;28;20203;-71
2021/01/21 05:10:34;;;;;;;2.50;1.10;;;;;;;7.85;81.99;98197.34;5052463;28;20218;-71
2021/01/21 05:13:06;;;;;;;1.67;0.93;;;;;;;8.10;79.38;98192.81;5038098;28;20684;-71
2021/01/21 05:15:58;;;;;;;1.57;1.00;;;;;;;7.92;81.31;98181.47;5053189;28;20230;-70
2021/01/21 05:19:01;;;;;;;2.83;1.10;;;;;;;7.80;82.20;98186.66;5082546;28;20545;-70
2021/01/21 05:21:48;;;;;;;2.93;0.90;;;;;;;7.97;80.31;98184.03;5070302;28;20222;-70
2021/01/21 05:24:32;;;;;;;2.27;0.90;;;;;;;7.94;80.38;98174.63;5056740;28;20769;-70
2021/01/21 05:27:20;;;;;;;1.77;0.90;;;;;;;7.91;81.08;98169.06;5075773;28;20221;-70
2021/01/21 05:29:53;;;;;;;3.90;1.10;;;;;;;7.94;80.87;98168.44;5074758;28;20174;-71
2021/01/21 05:32:22;;;;;;;2.10;1.00;;;;;;;8.16;80.10;98145.59;5063817;28;20291;-71
2021/01/21 05:35:05;;;;;;;3.20;1.20;;;;;;;8.27;79.33;98146.84;5070240;28;20183;-70
2021/01/21 05:37:41;;;;;;;2.67;0.90;;;;;;;8.48;77.32;98143.19;5056102;28;20225;-71
2021/01/21 05:40:32;;;;;;;1.33;0.90;;;;;;;8.65;76.47;98136.97;5072564;28;20214;-70
2021/01/21 05:43:09;;;;;;;2.63;1.10;;;;;;;8.59;76.39;98132.81;5060049;28;20174;-70
2021/01/21 05:45:45;;;;;;;1.63;0.90;;;;;;;8.75;75.64;98121.19;5058543;28;20641;-69
2021/01/21 05:48:15;;;;;;;2.23;1.10;;;;;;;8.90;74.23;98116.06;5073905;28;20289;-70
2021/01/21 05:50:47;;;;;;;2.07;0.80;;;;;;;8.85;74.09;98116.22;5074200;28;20363;-70
2021/01/21 05:53:13;;;;;;;1.90;0.93;;;;;;;8.96;74.23;98113.97;5041479;28;20583;-70
2021/01/21 05:55:50;;;;;;;2.93;0.73;;;;;;;8.89;73.77;98106.34;5043634;28;20221;-70
2021/01/21 05:58:15;;;;;;;1.73;0.80;;;;;;;9.08;73.40;98104.03;5057490;28;20210;-70
2021/01/21 06:00:42;;;;;;;3.37;0.90;;;;;;;9.16;72.85;98105.94;5056471;28;20271;-70
2021/01/21 06:03:24;;;;;;;1.40;1.00;;;;;;;9.14;72.32;98099.22;5062581;28;20181;-71
2021/01/21 06:06:05;;;;;;;2.20;0.83;;;;;;;9.43;70.90;98089.22;5071286;28;20694;-70
2021/01/21 06:08:31;;;;;;;1.27;0.80;;;;;;;9.43;70.92;98105.47;5058115;28;20544;-70
2021/01/21 06:10:57;;;;;;;1.80;1.03;;;;;;;9.41;71.23;98094.16;5089707;28;20218;-72
2021/01/21 06:13:27;;;;;;;1.30;1.03;;;;;;;9.69;69.36;98094.16;5074222;28;20214;-70
2021/01/21 06:15:53;;;;;;;1.67;0.80;;;;;;;9.58;69.89;98103.00;5069542;28;20349;-71
2021/01/21 06:18:18;;;;;;;2.70;0.90;;;;;;;9.88;68.05;98097.22;5074888;28;20167;-72
2021/01/21 06:20:48;;;;;;;1.20;0.80;;;;;;;10.16;66.52;98095.59;5059080;28;20246;-71
2021/01/21 06:23:35;;;;;;;2.27;0.80;;;;;;;10.31;66.26;98094.97;5061468;28;20823;-71
2021/01/21 06:26:22;;;;;;;2.20;0.77;;;;;;;10.43;65.51;98082.25;5047562;28;20242;-71
2021/01/21 06:28:47;;;;;;;3.00;0.80;;;;;;;10.48;65.07;98080.13;5043140;28;20190;-71
2021/01/21 06:31:13;;;;;;;1.00;0.70;;;;;;;10.44;65.76;98078.44;5043135;28;20700;-71
2021/01/21 06:33:40;;;;;;;2.17;0.90;;;;;;;10.82;63.29;98066.19;5042684;28;20271;-70
2021/01/21 06:36:13;;;;;;;1.70;0.80;;;;;;;10.74;64.78;98077.16;5056769;28;20250;-70
2021/01/21 06:38:39;;;;;;;1.60;0.80;;;;;;;10.81;64.44;98078.97;5076648;28;20179;-70
2021/01/21 06:41:19;;;;;;;2.27;1.03;;;;;;;10.86;64.18;98080.69;5042473;28;20222;-71
2021/01/21 06:43:47;;;;;;;1.57;0.90;;;;;;;10.89;63.75;98077.31;5060874;28;20236;-70
2021/01/21 06:46:13;;;;;;;1.17;0.70;;;;;;;11.05;63.55;98072.81;5041870;28;20637;-70
2021/01/21 06:48:50;;;;;;;2.13;1.20;;;;;;;11.10;63.23;98086.16;5077680;28;20183;-71
2021/01/21 06:51:19;;;;;;;2.67;1.30;;;;;;;11.06;63.47;98068.94;5075419;28;20222;-71
2021/01/21 06:53:47;;;;;;;1.80;1.10;;;;;;;11.13;62.80;98073.50;5060307;28;20202;-71
2021/01/21 06:56:13;;;;;;;2.30;1.20;;;;;;;11.20;62.58;98065.56;5058905;28;20301;-71
2021/01/21 06:58:45;;;;;;;1.87;0.90;;;;;;;11.13;62.54;98074.63;5042960;28;20194;-72
2021/01/21 07:01:32;;;;;;;1.80;0.93;;;;;;;11.00;64.03;98078.44;5058515;28;20305;-72
2021/01/21 07:04:04;;;;;;;2.27;0.90;;;;;;;11.07;63.53;98073.25;5077317;28;20654;-72
2021/01/21 07:06:57;;;;;;;1.60;0.80;;;;;;;11.05;63.93;98078.25;5074696;28;20254;-71
2021/01/21 07:09:24;;;;;;;1.83;0.90;;;;;;;10.94;64.13;98077.09;5076159;28;20186;-70
2021/01/21 07:11:54;;;;;;;2.03;0.70;;;;;;;11.09;63.56;98073.72;5058660;28;20591;-69
2021/01/21 07:14:21;;;;;;;1.23;1.00;;;;;;;11.08;63.65;98083.78;5076114;28;20187;-70
2021/01/21 07:16:55;;;;;;;2.13;0.90;;;;;;;11.11;63.59;98052.44;5059403;28;20309;-70
2021/01/21 07:19:34;;;;;;;2.77;0.70;;;;;;;11.11;63.56;98071.44;5060555;28;20190;-69
2021/01/21 07:22:01;;;;;;;2.67;0.90;;;;;;;11.24;63.24;98079.25;5075910;28;20214;-69
2021/01/21 07:24:27;;;;;;;3.13;0.90;;;;;;;11.08;64.30;98067.50;5059571;28;20211;-70
2021/01/21 07:26:53;;;;;;;1.03;0.70;;;;;;;11.05;64.56;98083.69;5054680;28;20231;-70
2021/01/21 07:29:24;;;;;;;1.10;0.80;;;;;;;11.10;64.17;98094.28;5024560;28;20258;-70
2021/01/21 07:31:50;;;;;;;1.70;0.87;;;;;;;11.13;64.41;98091.69;5077382;28;20230;-69
2021/01/21 07:34:26;;;;;;;2.13;0.73;;;;;;;11.23;64.17;98083.13;5092199;28;20189;-70
2021/01/21 07:37:15;;;;;;;1.97;0.80;;;;;;;11.38;63.38;98109.63;5058780;28;20241;-70
2021/01/21 07:39:50;;;;;;;0.90;0.80;;;;;;;11.39;63.32;98120.16;5092853;28;20179;-70
2021/01/21 07:42:16;;;;;;;1.30;0.77;;;;;;;11.38;65.74;98164.75;5092348;28;20241;-71
2021/01/21 07:44:59;;;;;;;0.70;0.70;;;;;;;11.22;68.73;98163.81;5058926;28;20170;-70
2021/01/21 07:47:37;;;;;;;1.27;0.80;;;;;;;11.02;71.76;98279.88;5058638;28;20715;-70
2021/01/21 07:50:36;;;;;;;2.13;0.60;;;;;;;10.16;77.94;98305.22;5075272;28;20709;-71
2021/01/21 07:53:17;;;;;;;0.63;0.40;;;;;;;9.53;85.02;98355.16;5093734;28;20209;-70
2021/01/21 07:55:42;;;;;;;0.70;0.40;;;;;;;8.99;89.24;98373.16;5059485;28;20218;-70
2021/01/21 07:58:27;;;;;;;0.77;0.37;;;;;;;8.61;93.25;98368.69;5075751;28;20714;-70
2021/01/21 08:01:02;;;;;;;0.80;0.57;;;;;;;8.29;94.52;98377.16;5091711;28;20222;-70
2021/01/21 08:03:31;;;;;;;0.83;0.40;;;;;;;8.18;95.73;98402.88;5043145;28;20174;-70
2021/01/21 08:06:03;;;;;;;0.63;0.40;;;;;;;7.93;97.67;98391.13;5092518;28;20229;-70
2021/01/21 08:08:32;;;;;;;0.47;0.30;;;;;;;7.77;96.08;98385.31;5075539;28;20190;-70
2021/01/21 08:11:04;;;;;;;1.27;0.40;;;;;;;7.69;96.71;98396.06;5075117;28;20222;-71
2021/01/21 08:13:30;;;;;;;2.03;0.73;;;;;;;7.57;95.92;98406.66;5075342;28;20298;-70
2021/01/21 08:15:57;;;;;;;1.67;0.50;;;;;;;7.51;97.31;98402.47;5057707;28;20241;-70
2021/01/21 08:18:26;;;;;;;1.23;0.40;;;;;;;7.53;97.65;98411.06;5075842;28;20182;-71
2021/01/21 08:20:51;;;;;;;1.17;0.60;;;;;;;7.56;96.32;98399.63;5041558;28;20239;-71
2021/01/21 08:23:19;;;;;;;0.90;0.50;;;;;;;7.53;95.74;98404.88;5092020;28;20186;-71
2021/01/21 08:25:49;;;;;;;0.80;0.40;;;;;;;7.52;94.61;98412.16;5074741;28;20764;-70
2021/01/21 08:28:19;;;;;;;0.47;0.40;;;;;;;7.48;95.44;98389.56;5091907;28;20229;-70
2021/01/21 08:30:45;;;;;;;2.33;0.53;;;;;;;7.38;95.63;98406.03;5091312;28;20301;-70
2021/01/21 08:33:18;;;;;;;1.50;0.40;;;;;;;7.41;94.97;98399.22;5058380;28;20229;-70
2021/01/21 08:35:55;;;;;;;0.33;0.33;;;;;;;7.30;94.69;98428.34;5042022;28;20214;-70
2021/01/21 08:38:39;;;;;;;1.23;0.50;;;;;;;7.41;94.82;98445.91;5076506;28;20556;-71
2021/01/21 08:41:05;;;;;;;0.60;0.40;;;;;;;7.32;95.79;98436.16;5091014;28;20228;-70
2021/01/21 08:43:31;;;;;;;3.57;0.97;;;;;;;7.36;95.56;98442.53;5058028;28;20174;-70
2021/01/21 08:46:01;;;;;;;0.53;0.50;;;;;;;7.33;96.51;98438.53;5089992;28;20237;-70
2021/01/21 08:48:32;;;;;;;3.03;0.80;;;;;;;7.35;96.81;98440.94;5041520;28;20197;-70
2021/01/21 08:51:00;;;;;;;0.60;0.47;;;;;;;7.32;96.23;98455.03;5058957;28;20226;-70
2021/01/21 08:53:30;;;;;;;0.53;0.43;;;;;;;7.19;96.74;98466.69;5058731;28;20217;-69
2021/01/21 08:56:01;;;;;;;1.40;0.50;;;;;;;7.27;95.81;98430.06;5073338;28;20242;-70
2021/01/21 08:58:31;;;;;;;1.40;0.57;;;;;;;7.25;96.44;98429.56;5058725;28;20194;-71
2021/01/21 09:01:06;;;;;;;1.27;0.50;;;;;;;7.34;96.93;98418.56;5041299;28;20379;-70
2021/01/21 09:03:40;;;;;;;1.30;0.50;;;;;;;7.32;95.41;98468.53;5092414;28;20190;-70
2021/01/21 09:06:11;;;;;;;1.03;0.40;;;;;;;7.32;95.11;98449.66;5056591;28;20221;-71
2021/01/21 09:08:58;;;;;;;0.90;0.40;;;;;;;7.32;93.75;98457.75;5058078;28;20605;-71
2021/01/21 09:11:27;;;;;;;0.83;0.50;;;;;;;7.35;93.26;98452.53;5073807;28;20210;-70
2021/01/21 09:13:55;;;;;;;1.33;0.37;;;;;;;7.36;93.98;98459.53;5090879;28;20625;-70
2021/01/21 09:16:46;;;;;;;0.90;0.40;;;;;;;7.62;92.53;98468.66;5072741;28;20226;-70
2021/01/21 09:19:14;;;;;;;1.43;0.63;;;;;;;7.44;92.95;98461.50;5074163;28;20185;-70
2021/01/21 09:22:02;;;;;;;0.30;0.30;;;;;;;7.52;92.04;98473.47;5072954;28;20237;-70
2021/01/21 09:24:31;;;;;;;0.40;0.30;;;;;;;7.62;90.56;98463.25;5090326;28;20202;-70
2021/01/21 09:27:17;;;;;;;0.70;0.40;;;;;;;7.69;90.87;98477.91;5057082;28;20221;-70
2021/01/21 09:29:53;;;;;;;0.80;0.50;;;;;;;7.72;90.07;98458.38;5073459;28;20222;-70
2021/01/21 09:32:25;;;;;;;0.70;0.37;;;;;;;7.76;89.40;98480.19;5069410;28;20218;-70
2021/01/21 09:34:51;;;;;;;1.40;0.20;;;;;;;7.81;89.77;98478.16;5086998;28;20558;-70
2021/01/21 09:37:16;;;;;;;1.20;0.73;;;;;;;7.85;89.35;98472.94;5069446;28;20277;-70
2021/01/21 09:39:45;;;;;;;3.33;1.00;;;;;;;7.77;89.07;98500.69;5037629;28;20277;-70
2021/01/21 09:42:13;;;;;;;2.53;1.07;;;;;;;7.79;88.29;98517.41;5053309;28;20230;-70
2021/01/21 09:44:38;;;;;;;5.33;1.00;;;;;;;7.89;87.54;98534.16;5069809;28;20544;-70
2021/01/21 09:47:04;;;;;;;3.80;1.33;;;;;;;7.84;87.21;98539.69;5064735;28;20224;-70
2021/01/21 09:49:30;;;;;;;2.23;1.00;;;;;;;7.90;87.42;98532.28;5073994;28;20592;-70
2021/01/21 09:51:59;;;;;;;1.03;0.33;;;;;;;7.93;85.86;98512.72;5056825;28;20367;-70
2021/01/21 09:54:25;;;;;;;1.33;0.50;;;;;;;7.98;85.94;98534.22;5057392;28;20189;-70
2021/01/21 09:56:52;;;;;;;1.13;0.40;;;;;;;7.82;85.58;98543.78;5072590;28;20228;-70
2021/01/21 09:59:18;;;;;;;1.20;0.50;;;;;;;7.89;85.00;98506.34;5073581;28;20186;-69
2021/01/21 10:01:49;;;;;;;0.83;0.47;;;;;;;7.98;85.50;98550.44;5072599;28;20214;-71
2021/01/21 10:04:15;;;;;;;0.50;0.30;;;;;;;7.91;85.62;98540.06;5089758;28;20186;-70
2021/01/21 10:06:41;;;;;;;0.40;0.40;;;;;;;7.96;83.75;98539.94;5072746;28;20217;-70
2021/01/21 10:09:07;;;;;;;1.23;0.60;;;;;;;8.07;83.97;98546.69;5056737;28;20182;-70
2021/01/21 10:11:32;;;;;;;2.57;0.70;;;;;;;8.14;82.68;98545.19;5055922;28;20778;-69
2021/01/21 10:13:59;;;;;;;2.00;0.60;;;;;;;8.13;82.91;98540.09;5056461;28;20182;-70
2021/01/21 10:16:30;;;;;;;1.47;0.70;;;;;;;8.02;82.47;98554.13;5071931;28;20224;-70
2021/01/21 10:18:56;;;;;;;2.43;0.60;;;;;;;8.09;81.99;98545.34;5057484;28;20653;-70
2021/01/21 10:21:26;;;;;;;1.40;0.50;;;;;;;7.88;82.25;98548.78;5056287;28;20225;-70
2021/01/21 10:23:52;;;;;;;1.73;0.70;;;;;;;8.03;81.73;98551.91;5056707;28;20179;-70
2021/01/21 10:26:22;;;;;;;1.50;0.47;;;;;;;7.93;81.79;98550.56;5072229;28;20229;-70
2021/01/21 10:28:48;;;;;;;1.60;0.60;;;;;;;7.81;82.21;98558.41;5056559;28;20194;-70
2021/01/21 10:31:13;;;;;;;1.70;0.60;;;;;;;7.88;82.24;98551.50;5089078;28;20226;-71
2021/01/21 10:33:41;;;;;;;3.30;0.70;;;;;;;7.84;81.23;98563.22;5089811;28;20230;-71
2021/01/21 10:36:07;;;;;;;4.47;0.83;;;;;;;7.83;81.36;98567.00;5072293;28;20225;-69
2021/01/21 10:38:33;;;;;;;2.17;0.60;;;;;;;7.79;80.45;98563.34;5056590;28;20197;-69
2021/01/21 10:40:59;;;;;;;2.77;0.90;;;;;;;8.06;80.88;98570.22;5055903;28;20225;-70
2021/01/21 10:43:25;;;;;;;3.23;0.70;;;;;;;8.15;79.04;98560.31;5073391;28;20232;-73
2021/01/21 10:45:50;;;;;;;1.00;0.60;;;;;;;8.39;78.49;98555.38;5039091;28;20229;-70
2021/01/21 10:48:16;;;;;;;2.07;0.80;;;;;;;8.43;77.75;98550.94;5056626;28;20281;-71
2021/01/21 10:50:42;;;;;;;1.90;0.70;;;;;;;8.50;77.02;98562.13;5072217;28;20290;-70
2021/01/21 10:53:08;;;;;;;2.77;0.70;;;;;;;8.40;76.42;98556.19;5073444;28;20230;-70
2021/01/21 10:55:34;;;;;;;2.40;1.17;;;;;;;8.47;74.89;98551.91;5055405;28;20214;-69
2021/01/21 10:58:06;;;;;;;2.07;0.90;;;;;;;8.49;75.62;98560.53;5073411;28;20236;-69
2021/01/21 11:00:32;;;;;;;2.47;0.83;;;;;;;8.68;74.91;98555.69;5089703;28;20225;-72
2021/01/21 11:02:57;;;;;;;1.93;0.93;;;;;;;8.87;73.63;98568.69;5060128;28;20178;-70
2021/01/21 11:05:23;;;;;;;2.50;0.73;;;;;;;8.72;71.87;98559.34;5058914;28;20686;-70
2021/01/21 11:07:51;;;;;;;3.10;1.50;;;;;;;8.81;72.67;98549.38;5059875;28;20213;-70
2021/01/21 11:10:16;;;;;;;2.03;0.87;;;;;;;8.78;70.50;98558.13;5043133;28;20640;-70
2021/01/21 11:12:46;;;;;;;3.13;0.70;;;;;;;8.81;70.44;98557.50;5060697;28;20206;-70
2021/01/21 11:15:12;;;;;;;2.50;0.70;;;;;;;8.77;70.15;98556.53;5092197;28;20202;-70
2021/01/21 11:17:42;;;;;;;4.57;1.10;;;;;;;8.84;69.65;98552.25;5093276;28;20259;-70
2021/01/21 11:20:12;;;;;;;2.10;0.90;;;;;;;8.87;69.52;98549.72;5092612;28;20197;-70
2021/01/21 11:22:38;;;;;;;3.37;1.00;;;;;;;8.73;69.42;98558.25;5092965;28;20181;-71
2021/01/21 11:25:08;;;;;;;3.07;0.90;;;;;;;8.86;69.77;98556.28;5092355;28;20185;-70
2021/01/21 11:27:37;;;;;;;2.93;0.90;;;;;;;8.84;68.94;98553.09;5092199;28;20589;-70
2021/01/21 11:30:07;;;;;;;1.77;0.83;;;;;;;8.81;68.41;98562.91;5058951;28;20178;-70
2021/01/21 11:32:32;;;;;;;2.33;0.83;;;;;;;8.82;67.96;98559.91;5076308;28;20210;-69
2021/01/21 11:34:59;;;;;;;3.57;1.00;;;;;;;8.80;68.49;98574.88;5058950;28;20182;-69
2021/01/21 11:37:24;;;;;;;3.10;1.03;;;;;;;8.61;68.47;98572.38;5092310;28;20312;-69
2021/01/21 11:39:52;;;;;;;2.20;0.70;;;;;;;8.79;68.77;98562.44;5093013;28;20213;-72
2021/01/21 11:42:20;;;;;;;3.13;1.00;;;;;;;8.78;68.86;98571.66;5075172;28;20233;-71
2021/01/21 11:44:48;;;;;;;1.63;0.83;;;;;;;8.78;68.08;98568.97;5075872;28;20265;-70
2021/01/21 11:47:16;;;;;;;2.80;0.80;;;;;;;8.87;68.06;98567.88;5091955;28;20590;-70
2021/01/21 11:49:44;;;;;;;1.87;1.00;;;;;;;8.96;68.18;98576.84;5092702;28;20175;-71
2021/01/21 11:52:10;;;;;;;2.17;1.00;;;;;;;8.86;67.52;98561.69;5091866;28;20332;-71
2021/01/21 11:54:36;;;;;;;2.53;1.20;;;;;;;8.88;67.90;98569.47;5058556;28;20194;-71
2021/01/21 11:57:04;;;;;;;2.27;0.90;;;;;;;8.95;67.32;98557.06;5042304;28;20750;-71
2021/01/21 11:59:29;;;;;;;3.20;1.23;;;;;;;9.14;68.15;98557.66;5092023;28;20198;-71
2021/01/21 12:01:58;;;;;;;3.10;0.80;;;;;;;8.97;65.91;98554.88;5056219;28;20227;-71
2021/01/21 12:04:24;;;;;;;2.60;1.30;;;;;;;8.97;66.42;98563.00;5066199;28;20325;-71